Time;durP1;ratioP1;P1;durP2;ratioP2;P2;SDS_P1;SDS_P2;PMS_P1;PMS_P2;Temp;Humidity;BMP_temperature;BMP_pressure;BME280_temperature;BME280_humidity;BME280_pressure;Samples;Min_cycle;Max_cycle;Signal;HPM_P1;HPM_P2
2023/01/17 00:02:06;;;;;;;;;;;;;;;8.78;75.09;93878.78;5093275;28;1230;-54
2023/01/17 00:10:07;;;;;;;;;;;;;;;8.71;76.02;93872.53;5073438;28;1056;-54
2023/01/17 00:12:34;;;;;;;;;;;;;;;8.75;75.83;93881.81;5073129;28;1909;-54
2023/01/17 00:15:00;;;;;;;;;;;;;;;8.79;75.58;93876.94;5073090;28;1096;-54
2023/01/17 00:17:27;;;;;;;;;;;;;;;8.85;75.20;93897.53;5073113;28;941;-54
2023/01/17 00:26:02;;;;;;;;;;;;;;;8.78;75.14;93872.63;5073206;28;1021;-54
2023/01/17 01:35:12;;;;;;;;;;;;;;;8.81;81.79;93879.44;5055688;28;1056;-54
2023/01/17 01:37:38;;;;;;;;;;;;;;;8.86;81.44;93880.56;5055847;28;981;-53
2023/01/17 01:40:04;;;;;;;;;;;;;;;8.88;81.00;93859.03;5055600;28;1045;-54
2023/01/17 01:42:30;;;;;;;;;;;;;;;8.89;81.17;93858.03;5054341;28;1091;-53
2023/01/17 01:44:56;;;;;;;;;;;;;;;8.87;81.50;93850.22;5055369;28;1897;-53
2023/01/17 01:47:28;;;;;;;;;;;;;;;8.88;81.76;93848.34;5069628;28;1170;-54
2023/01/17 01:49:54;;;;;;;;;;;;;;;8.87;81.58;93846.72;5075236;28;1192;-53
2023/01/17 01:52:22;;;;;;;;;;;;;;;8.84;82.92;93866.59;5075352;28;1029;-54
2023/01/17 01:54:53;;;;;;;;;;;;;;;8.91;82.49;93872.00;5075413;28;997;-54
2023/01/17 01:57:21;;;;;;;;;;;;;;;8.98;82.33;93878.25;5075298;28;1870;-54
2023/01/17 01:59:50;;;;;;;;;;;;;;;8.95;82.33;93871.47;5075256;28;1036;-54
2023/01/17 02:02:17;;;;;;;;;;;;;;;8.94;82.92;93877.78;5075078;28;1130;-54
2023/01/17 02:04:43;;;;;;;;;;;;;;;8.96;82.44;93869.63;5075015;28;1039;-54
2023/01/17 02:07:11;;;;;;;;;;;;;;;9.00;82.42;93870.91;5075077;28;1091;-54
2023/01/17 02:09:38;;;;;;;;;;;;;;;9.02;82.82;93878.72;5075162;28;969;-54
2023/01/17 02:12:05;;;;;;;;;;;;;;;9.01;82.37;93872.56;5075073;28;1033;-54
2023/01/17 02:14:31;;;;;;;;;;;;;;;9.02;82.46;93847.56;5074928;28;1993;-54
2023/01/17 02:16:59;;;;;;;;;;;;;;;9.01;82.69;93829.91;5074835;28;1040;-53
2023/01/17 02:19:42;;;;;;;;;;;;;;;8.98;83.03;93835.59;5074809;28;1232;-54
2023/01/17 02:22:21;;;;;;;;;;;;;;;8.85;83.52;93835.41;5055383;28;1150;-54
2023/01/17 02:25:05;;;;;;;;;;;;;;;8.73;84.36;93833.19;5054824;28;1017;-54
2023/01/17 02:27:46;;;;;;;;;;;;;;;8.69;85.57;93837.25;5054723;28;1063;-54
2023/01/17 02:30:12;;;;;;;;;;;;;;;8.68;85.59;93840.09;5054842;28;1048;-54
2023/01/17 02:33:00;;;;;;;;;;;;;;;8.65;85.45;93835.09;5054603;28;1906;-54
2023/01/17 02:35:27;;;;;;;;;;;;;;;8.66;86.40;93829.59;5054654;28;1017;-54
2023/01/17 02:38:11;;;;;;;;;;;;;;;8.65;85.83;93819.97;5054438;28;1034;-54
2023/01/17 02:40:40;;;;;;;;;;;;;;;8.64;86.22;93828.97;5054323;28;1088;-54
2023/01/17 02:43:13;;;;;;;;;;;;;;;8.66;86.88;93836.78;5053329;28;1033;-54
2023/01/17 02:45:39;;;;;;;;;;;;;;;8.71;87.39;93827.22;5054373;28;1059;-54
2023/01/17 02:48:07;;;;;;;;;;;;;;;8.66;87.64;93842.94;5054357;28;1071;-54
2023/01/17 02:50:56;;;;;;;;;;;;;;;8.67;87.30;93831.28;5054176;28;1125;-54
2023/01/17 02:53:25;;;;;;;;;;;;;;;8.69;87.60;93857.72;5016838;28;1906;-54
2023/01/17 02:55:51;;;;;;;;;;;;;;;8.77;87.20;93868.31;5054196;28;1536;-54
2023/01/17 02:58:26;;;;;;;;;;;;;;;8.87;86.69;93871.53;5054254;28;1320;-54
2023/01/17 03:01:06;;;;;;;;;;;;;;;8.81;86.66;93852.78;5053799;28;1232;-54
2023/01/17 03:03:51;;;;;;;;;;;;;;;8.77;86.79;93855.00;5054073;28;1127;-54
2023/01/17 03:06:17;;;;;;;;;;;;;;;8.68;87.95;93846.22;5054151;28;1025;-54
2023/01/17 03:08:44;;;;;;;;;;;;;;;8.64;88.09;93842.28;5053847;28;1043;-54
2023/01/17 03:11:11;;;;;;;;;;;;;;;8.57;88.70;93849.34;5053951;28;1005;-54
2023/01/17 03:13:37;;;;;;;;;;;;;;;8.60;88.98;93848.97;5053674;28;2003;-54
2023/01/17 03:16:05;;;;;;;;;;;;;;;8.58;88.63;93857.16;5053951;28;1028;-54
2023/01/17 03:18:31;;;;;;;;;;;;;;;8.59;89.12;93848.16;5053991;28;1055;-54
2023/01/17 03:20:58;;;;;;;;;;;;;;;8.56;88.77;93850.34;5063198;28;1139;-54
2023/01/17 03:23:24;;;;;;;;;;;;;;;8.57;88.22;93854.66;5073291;28;1726;-54
2023/01/17 03:25:50;;;;;;;;;;;;;;;8.65;87.85;93840.44;5073663;28;1041;-54
2023/01/17 03:28:16;;;;;;;;;;;;;;;8.62;88.33;93838.97;5073543;28;1045;-54
2023/01/17 03:30:42;;;;;;;;;;;;;;;8.59;89.09;93832.19;5073765;28;1047;-54
2023/01/17 03:33:08;;;;;;;;;;;;;;;8.50;89.03;93830.59;5073391;28;2061;-54
2023/01/17 03:35:34;;;;;;;;;;;;;;;8.52;89.16;93833.91;5073612;28;1005;-54
2023/01/17 03:38:00;;;;;;;;;;;;;;;8.52;89.11;93822.44;5073377;28;1045;-54
2023/01/17 03:40:26;;;;;;;;;;;;;;;8.57;87.93;93836.00;5073546;28;1263;-54
2023/01/17 03:42:52;;;;;;;;;;;;;;;8.61;88.18;93821.31;5073241;28;1049;-54
2023/01/17 03:45:18;;;;;;;;;;;;;;;8.60;87.88;93819.69;5073625;28;1033;-54
2023/01/17 03:47:44;;;;;;;;;;;;;;;8.59;87.58;93815.34;5073220;28;1046;-54
2023/01/17 03:50:11;;;;;;;;;;;;;;;8.69;87.07;93817.75;5073486;28;985;-54
2023/01/17 03:52:38;;;;;;;;;;;;;;;8.62;87.40;93825.66;5073248;28;2020;-54
2023/01/17 03:55:04;;;;;;;;;;;;;;;8.59;87.63;93826.00;5073256;28;1073;-54
2023/01/17 03:57:30;;;;;;;;;;;;;;;8.47;88.41;93820.28;5055400;28;1038;-54
2023/01/17 03:59:56;;;;;;;;;;;;;;;8.44;88.69;93825.97;5073433;28;996;-54
2023/01/17 04:02:23;;;;;;;;;;;;;;;8.49;88.03;93831.59;5055248;28;1090;-54
2023/01/17 04:04:49;;;;;;;;;;;;;;;8.68;87.46;93843.56;5073299;28;1041;-54
2023/01/17 04:07:16;;;;;;;;;;;;;;;8.78;86.05;93852.16;5073276;28;1127;-54
2023/01/17 04:09:42;;;;;;;;;;;;;;;8.92;85.92;93857.66;5073028;28;1088;-54
2023/01/17 04:12:08;;;;;;;;;;;;;;;8.93;85.82;93848.66;5073126;28;957;-54
2023/01/17 04:14:34;;;;;;;;;;;;;;;8.77;86.68;93833.66;5073236;28;1906;-54
2023/01/17 04:17:01;;;;;;;;;;;;;;;8.50;88.39;93829.75;5073178;28;977;-54
2023/01/17 04:19:27;;;;;;;;;;;;;;;8.54;88.09;93820.41;5073227;28;1024;-54
2023/01/17 04:21:54;;;;;;;;;;;;;;;8.51;87.39;93832.22;5055467;28;1162;-54
2023/01/17 04:24:19;;;;;;;;;;;;;;;8.69;86.20;93841.72;5053052;28;1025;-54
2023/01/17 04:26:46;;;;;;;;;;;;;;;8.84;84.80;93839.06;5052864;28;1044;-54
2023/01/17 04:29:12;;;;;;;;;;;;;;;8.95;83.90;93835.97;5052900;28;1061;-54
2023/01/17 04:31:38;;;;;;;;;;;;;;;8.99;83.46;93834.59;5053107;28;961;-54
2023/01/17 04:34:04;;;;;;;;;;;;;;;9.08;82.18;93820.16;5052768;28;1898;-54
2023/01/17 04:36:30;;;;;;;;;;;;;;;9.11;82.40;93824.31;5055765;28;1056;-54
2023/01/17 04:38:56;;;;;;;;;;;;;;;9.00;83.44;93817.59;5056679;28;1100;-54
2023/01/17 04:41:22;;;;;;;;;;;;;;;8.91;83.63;93829.34;5056662;28;1104;-54
2023/01/17 04:43:48;;;;;;;;;;;;;;;8.94;83.88;93826.31;5055630;28;1049;-54
2023/01/17 04:46:14;;;;;;;;;;;;;;;8.92;83.44;93826.50;5056550;28;1147;-54
2023/01/17 04:48:40;;;;;;;;;;;;;;;8.94;83.55;93831.66;5055298;28;1115;-54
2023/01/17 04:51:06;;;;;;;;;;;;;;;8.98;83.18;93830.28;5056565;28;1021;-54
2023/01/17 04:53:32;;;;;;;;;;;;;;;8.98;83.30;93835.59;5056317;28;1905;-54
2023/01/17 04:55:59;;;;;;;;;;;;;;;8.95;82.98;93847.47;5056364;28;962;-54
2023/01/17 04:58:25;;;;;;;;;;;;;;;8.95;82.83;93852.81;5056586;28;1046;-54
2023/01/17 05:00:51;;;;;;;;;;;;;;;8.94;82.46;93856.47;5056368;28;1097;-54
2023/01/17 05:03:17;;;;;;;;;;;;;;;9.05;81.22;93862.34;5056484;28;966;-54
2023/01/17 05:05:44;;;;;;;;;;;;;;;9.06;81.38;93872.84;5056377;28;1025;-54
2023/01/17 05:08:10;;;;;;;;;;;;;;;9.08;81.46;93867.31;5056308;28;1052;-54
2023/01/17 05:10:36;;;;;;;;;;;;;;;8.99;82.37;93866.56;5056058;28;1112;-54
2023/01/17 05:13:02;;;;;;;;;;;;;;;8.98;83.14;93888.94;5055172;28;1906;-54
2023/01/17 05:15:28;;;;;;;;;;;;;;;8.90;83.24;93879.16;5056218;28;1053;-54
2023/01/17 05:17:55;;;;;;;;;;;;;;;8.90;83.35;93875.69;5056140;28;1060;-54
2023/01/17 05:20:22;;;;;;;;;;;;;;;8.81;83.40;93866.13;5060521;28;1174;-54
2023/01/17 05:22:56;;;;;;;;;;;;;;;8.81;83.52;93858.13;5075941;28;1072;-54
2023/01/17 05:25:23;;;;;;;;;;;;;;;8.87;83.58;93831.56;5075873;28;1024;-54
2023/01/17 05:27:50;;;;;;;;;;;;;;;8.89;83.69;93834.84;5076115;28;1012;-54
2023/01/17 05:30:17;;;;;;;;;;;;;;;8.88;84.75;93827.88;5075985;28;1064;-54
2023/01/17 05:32:50;;;;;;;;;;;;;;;8.82;85.23;93836.63;5075721;28;1996;-54
2023/01/17 05:35:18;;;;;;;;;;;;;;;8.88;85.26;93840.38;5075791;28;973;-54
2023/01/17 05:37:48;;;;;;;;;;;;;;;8.86;86.22;93839.72;5075645;28;1037;-54
2023/01/17 05:40:15;;;;;;;;;;;;;;;8.96;85.20;93849.13;5075568;28;1025;-54
2023/01/17 05:42:45;;;;;;;;;;;;;;;8.98;85.02;93848.94;5075517;28;1025;-54
2023/01/17 05:45:15;;;;;;;;;;;;;;;9.01;84.43;93853.06;5075495;28;1099;-53
2023/01/17 05:47:42;;;;;;;;;;;;;;;9.12;84.31;93865.94;5075129;28;1030;-54
2023/01/17 05:50:09;;;;;;;;;;;;;;;9.13;84.35;93856.94;5075507;28;1048;-54
2023/01/17 05:52:35;;;;;;;;;;;;;;;9.14;84.55;93862.09;5075246;28;1987;-53
2023/01/17 05:55:01;;;;;;;;;;;;;;;9.15;84.78;93863.75;5057627;28;2095;-54
2023/01/17 05:57:27;;;;;;;;;;;;;;;9.12;85.27;93858.75;5075474;28;1091;-53
2023/01/17 05:59:53;;;;;;;;;;;;;;;9.19;84.62;93843.69;5075181;28;1061;-53
2023/01/17 06:02:19;;;;;;;;;;;;;;;9.13;85.53;93836.44;5074912;28;1093;-53
2023/01/17 06:04:46;;;;;;;;;;;;;;;9.06;86.26;93846.16;5075171;28;974;-53
2023/01/17 06:07:12;;;;;;;;;;;;;;;9.03;86.57;93840.38;5075087;28;1135;-54
2023/01/17 06:09:37;;;;;;;;;;;;;;;9.01;86.65;93845.91;5075092;28;1013;-53
2023/01/17 06:12:04;;;;;;;;;;;;;;;9.04;86.69;93863.38;5075114;28;1053;-54
2023/01/17 06:14:30;;;;;;;;;;;;;;;9.09;86.45;93879.66;5074944;28;2000;-56
2023/01/17 06:16:56;;;;;;;;;;;;;;;9.19;86.29;93877.53;5074797;28;1235;-52
2023/01/17 06:19:22;;;;;;;;;;;;;;;9.24;86.01;93868.97;5074735;28;1059;-54
2023/01/17 06:21:48;;;;;;;;;;;;;;;9.34;85.32;93872.19;5058061;28;1158;-53
2023/01/17 06:24:14;;;;;;;;;;;;;;;9.37;85.00;93875.34;5054936;28;1050;-53
2023/01/17 06:26:42;;;;;;;;;;;;;;;9.36;85.22;93886.19;5054804;28;969;-53
2023/01/17 06:29:09;;;;;;;;;;;;;;;9.26;85.66;93901.63;5053448;28;1086;-53
2023/01/17 06:31:35;;;;;;;;;;;;;;;9.21;86.38;93899.50;5054644;28;1020;-54
2023/01/17 06:34:02;;;;;;;;;;;;;;;9.20;85.87;93889.88;5053277;28;1985;-53
2023/01/17 06:36:29;;;;;;;;;;;;;;;9.18;85.89;93905.19;5054439;28;1031;-54
2023/01/17 06:38:55;;;;;;;;;;;;;;;9.18;86.22;93895.38;5053350;28;1120;-53
2023/01/17 06:41:22;;;;;;;;;;;;;;;9.25;85.81;93910.66;5054588;28;989;-53
2023/01/17 06:43:48;;;;;;;;;;;;;;;9.29;85.74;93899.41;5054477;28;1028;-53
2023/01/17 06:46:14;;;;;;;;;;;;;;;9.32;85.60;93892.91;5053084;28;1025;-53
2023/01/17 06:48:42;;;;;;;;;;;;;;;9.33;85.35;93918.53;5053509;28;1037;-53
2023/01/17 06:51:09;;;;;;;;;;;;;;;9.45;84.53;93932.28;5053526;28;1028;-54
2023/01/17 06:53:35;;;;;;;;;;;;;;;9.53;83.79;93934.84;5054067;28;2001;-53
2023/01/17 06:56:01;;;;;;;;;;;;;;;9.66;83.20;93936.88;5053914;28;1029;-53
2023/01/17 06:58:27;;;;;;;;;;;;;;;9.77;82.44;93953.22;5053306;28;1043;-53
2023/01/17 07:00:53;;;;;;;;;;;;;;;9.88;81.53;93940.41;5052581;28;1125;-52
2023/01/17 07:03:23;;;;;;;;;;;;;;;9.93;81.27;93957.53;5053932;28;1040;-54
2023/01/17 07:05:50;;;;;;;;;;;;;;;9.98;80.47;93951.66;5053918;28;1139;-53
2023/01/17 07:08:17;;;;;;;;;;;;;;;10.12;79.47;93965.97;5054063;28;981;-53
2023/01/17 07:10:44;;;;;;;;;;;;;;;10.15;79.22;93969.13;5053672;28;1180;-54
2023/01/17 07:13:10;;;;;;;;;;;;;;;10.15;78.77;93970.97;5053844;28;1910;-55
2023/01/17 07:15:36;;;;;;;;;;;;;;;10.27;78.84;93979.31;5068933;28;1046;-54
2023/01/17 07:18:03;;;;;;;;;;;;;;;10.31;78.29;93972.59;5053783;28;969;-54
2023/01/17 07:20:29;;;;;;;;;;;;;;;10.37;77.42;93969.16;5059469;28;1146;-53
2023/01/17 07:22:55;;;;;;;;;;;;;;;10.43;77.15;93983.63;5073647;28;1045;-54
2023/01/17 07:25:21;;;;;;;;;;;;;;;10.46;76.82;93976.06;5073708;28;980;-54
2023/01/17 07:27:47;;;;;;;;;;;;;;;10.48;76.92;93965.19;5073612;28;1095;-53
2023/01/17 07:30:13;;;;;;;;;;;;;;;10.46;77.14;93980.59;5073564;28;1053;-54
2023/01/17 07:32:39;;;;;;;;;;;;;;;10.43;76.15;93986.28;5073378;28;1981;-54
2023/01/17 07:35:06;;;;;;;;;;;;;;;10.51;76.53;93989.69;5073481;28;1029;-54
2023/01/17 07:37:32;;;;;;;;;;;;;;;10.54;75.98;93988.47;5073652;28;969;-54
2023/01/17 07:39:59;;;;;;;;;;;;;;;10.55;75.50;93990.97;5073654;28;970;-55
2023/01/17 07:42:25;;;;;;;;;;;;;;;10.59;75.32;93986.06;5073484;28;1037;-54
2023/01/17 07:44:51;;;;;;;;;;;;;;;10.62;75.20;93983.00;5073429;28;1052;-54
2023/01/17 07:47:18;;;;;;;;;;;;;;;10.68;74.93;93984.09;5073399;28;1055;-54
2023/01/17 07:49:44;;;;;;;;;;;;;;;10.69;75.00;93989.25;5073328;28;1049;-54
2023/01/17 07:52:10;;;;;;;;;;;;;;;10.77;74.65;93980.28;5073214;28;1057;-54
2023/01/17 07:54:37;;;;;;;;;;;;;;;10.81;74.76;93983.41;5073147;28;2007;-55
2023/01/17 07:57:03;;;;;;;;;;;;;;;10.80;74.13;93979.09;5073237;28;1037;-55
2023/01/17 07:59:29;;;;;;;;;;;;;;;10.86;74.53;93978.31;5073287;28;938;-52
2023/01/17 08:01:55;;;;;;;;;;;;;;;10.80;75.08;93979.09;5073060;28;1334;-52
2023/01/17 08:04:23;;;;;;;;;;;;;;;10.77;74.98;93979.44;5073062;28;1038;-52
2023/01/17 08:06:50;;;;;;;;;;;;;;;10.77;75.10;93982.94;5073442;28;1107;-54
2023/01/17 08:09:16;;;;;;;;;;;;;;;10.86;75.05;93973.78;5073995;28;899;-54
2023/01/17 08:11:42;;;;;;;;;;;;;;;10.91;74.76;93965.19;5077340;28;1032;-54
2023/01/17 08:14:08;;;;;;;;;;;;;;;10.92;74.54;93982.88;5059497;28;1906;-55
2023/01/17 08:16:36;;;;;;;;;;;;;;;10.95;73.93;93969.16;5077146;28;1012;-54
2023/01/17 08:19:02;;;;;;;;;;;;;;;11.03;73.96;93981.56;5077166;28;1507;-54
2023/01/17 08:21:28;;;;;;;;;;;;;;;11.05;73.26;93983.00;5063429;28;1166;-54
2023/01/17 08:23:54;;;;;;;;;;;;;;;11.14;72.90;93997.09;5057237;28;973;-54
2023/01/17 08:26:21;;;;;;;;;;;;;;;11.16;72.85;93999.56;5057075;28;1084;-54
2023/01/17 08:28:47;;;;;;;;;;;;;;;11.21;72.61;93992.63;5057069;28;1048;-55
2023/01/17 08:31:16;;;;;;;;;;;;;;;11.30;71.66;94002.13;5056933;28;1205;-54
2023/01/17 08:33:42;;;;;;;;;;;;;;;11.36;71.41;94003.22;5056741;28;1993;-54
2023/01/17 08:36:08;;;;;;;;;;;;;;;11.46;70.81;93989.53;5056813;28;1959;-53
2023/01/17 08:38:34;;;;;;;;;;;;;;;11.55;70.53;93995.53;5056678;28;1030;-54
2023/01/17 08:41:00;;;;;;;;;;;;;;;11.63;69.94;93996.22;5056840;28;1060;-54
2023/01/17 08:43:26;;;;;;;;;;;;;;;11.59;69.77;93996.78;5056581;28;1068;-53
2023/01/17 08:45:54;;;;;;;;;;;;;;;11.64;70.62;93992.50;5055439;28;1049;-54
2023/01/17 08:48:23;;;;;;;;;;;;;;;11.62;72.31;93999.09;5056510;28;1052;-54
2023/01/17 08:50:49;;;;;;;;;;;;;;;11.60;73.26;94006.50;5056555;28;1561;-54
2023/01/17 08:53:17;;;;;;;;;;;;;;;11.59;73.00;94003.00;5056663;28;1910;-54
2023/01/17 08:55:43;;;;;;;;;;;;;;;11.52;73.98;93994.09;5056572;28;985;-54
2023/01/17 08:58:09;;;;;;;;;;;;;;;11.50;73.94;93996.94;5056567;28;1107;-54
2023/01/17 09:00:35;;;;;;;;;;;;;;;11.49;73.99;93991.78;5056172;28;1832;-54
2023/01/17 09:03:01;;;;;;;;;;;;;;;11.48;73.67;93996.31;5056637;28;962;-55
2023/01/17 09:05:27;;;;;;;;;;;;;;;11.57;73.42;93977.44;5056269;28;1104;-55
2023/01/17 09:07:53;;;;;;;;;;;;;;;11.70;72.29;93983.72;5056235;28;1045;-54
2023/01/17 09:10:19;;;;;;;;;;;;;;;11.78;73.17;93998.78;5056062;28;1124;-54
2023/01/17 09:12:45;;;;;;;;;;;;;;;11.82;72.58;93999.19;5056166;28;1965;-54
2023/01/17 09:15:16;;;;;;;;;;;;;;;11.71;71.71;93997.91;5056188;28;1068;-54
2023/01/17 09:17:42;;;;;;;;;;;;;;;11.64;71.88;93997.88;5096464;28;1008;-54
2023/01/17 09:20:08;;;;;;;;;;;;;;;11.69;71.81;93984.72;5093551;28;1177;-54
2023/01/17 09:22:36;;;;;;;;;;;;;;;11.84;71.91;93991.81;5075090;28;1100;-54
2023/01/17 09:25:02;;;;;;;;;;;;;;;11.79;72.43;93994.25;5076058;28;1038;-54
2023/01/17 09:27:28;;;;;;;;;;;;;;;11.87;71.99;93997.59;5075929;28;1040;-54
2023/01/17 09:29:54;;;;;;;;;;;;;;;11.88;70.89;93998.44;5058032;28;1206;-55
2023/01/17 09:32:20;;;;;;;;;;;;;;;11.87;71.21;94000.25;5075919;28;967;-54
2023/01/17 09:34:46;;;;;;;;;;;;;;;11.90;71.15;93993.75;5075677;28;1989;-54
2023/01/17 09:37:12;;;;;;;;;;;;;;;11.95;71.19;93998.50;5075717;28;1553;-54
2023/01/17 09:39:38;;;;;;;;;;;;;;;11.99;71.07;93994.38;5075664;28;977;-55
2023/01/17 09:42:16;;;;;;;;;;;;;;;11.99;70.96;94010.47;5075722;28;1032;-54
2023/01/17 09:44:42;;;;;;;;;;;;;;;12.02;70.53;94004.72;5057794;28;1088;-54
2023/01/17 09:47:11;;;;;;;;;;;;;;;11.99;70.13;94003.28;5075711;28;1032;-55
2023/01/17 09:49:42;;;;;;;;;;;;;;;12.08;69.97;94006.59;5075417;28;1282;-54
2023/01/17 09:52:10;;;;;;;;;;;;;;;12.11;69.60;93990.13;5075439;28;1045;-55
2023/01/17 09:54:38;;;;;;;;;;;;;;;12.17;69.06;93986.66;5075251;28;1934;-54
2023/01/17 09:57:07;;;;;;;;;;;;;;;12.24;69.15;93995.56;5075350;28;993;-54
2023/01/17 09:59:50;;;;;;;;;;;;;;;12.34;68.65;93995.19;5075385;28;1041;-54
2023/01/17 10:02:16;;;;;;;;;;;;;;;12.42;68.32;93981.59;5075126;28;1349;-53
2023/01/17 10:04:42;;;;;;;;;;;;;;;12.45;67.52;93980.38;5075249;28;1025;-54
2023/01/17 10:07:15;;;;;;;;;;;;;;;12.59;67.70;93983.94;5075101;28;1077;-54
2023/01/17 10:10:01;;;;;;;;;;;;;;;12.65;66.70;93983.09;5074968;28;1021;-54
2023/01/17 10:12:33;;;;;;;;;;;;;;;12.70;66.22;93997.56;5075206;28;1028;-54
2023/01/17 10:15:10;;;;;;;;;;;;;;;12.73;67.20;93996.34;5075028;28;1906;-54
2023/01/17 10:17:42;;;;;;;;;;;;;;;12.97;65.99;93994.94;5074908;28;1052;-54
2023/01/17 10:20:17;;;;;;;;;;;;;;;13.17;65.08;93997.66;5071994;28;1182;-54
2023/01/17 10:22:53;;;;;;;;;;;;;;;13.35;65.07;93998.94;5054759;28;1635;-54
2023/01/17 10:25:27;;;;;;;;;;;;;;;13.55;64.86;93996.25;5054920;28;1033;-54
2023/01/17 10:27:58;;;;;;;;;;;;;;;13.78;63.94;93999.31;5054774;28;1038;-54
2023/01/17 10:30:47;;;;;;;;;;;;;;;13.57;64.11;93991.50;5054553;28;1046;-53
2023/01/17 10:33:16;;;;;;;;;;;;;;;13.27;64.46;93989.19;5053730;28;1938;-54
2023/01/17 10:35:56;;;;;;;;;;;;;;;13.11;64.97;93989.59;5054637;28;1049;-53
2023/01/17 10:38:25;;;;;;;;;;;;;;;12.93;65.63;93982.97;5054596;28;1267;-54
2023/01/17 10:40:57;;;;;;;;;;;;;;;13.06;65.79;93968.75;5054494;28;1029;-54
2023/01/17 10:43:32;;;;;;;;;;;;;;;13.12;65.75;93959.03;5054351;28;1057;-54
2023/01/17 10:45:58;;;;;;;;;;;;;;;13.18;64.49;93960.91;5054420;28;1108;-54
2023/01/17 10:48:28;;;;;;;;;;;;;;;13.24;63.68;93960.06;5054427;28;1044;-55
2023/01/17 10:51:12;;;;;;;;;;;;;;;13.21;63.66;93955.94;5054449;28;1234;-53
2023/01/17 10:54:01;;;;;;;;;;;;;;;13.30;64.46;93961.97;5054076;28;1996;-54
2023/01/17 10:56:28;;;;;;;;;;;;;;;13.31;63.26;93949.38;5054122;28;2271;-54
2023/01/17 10:59:13;;;;;;;;;;;;;;;13.29;63.97;93954.91;5054271;28;1040;-54
2023/01/17 11:01:40;;;;;;;;;;;;;;;13.27;63.22;93951.63;5053918;28;1093;-54
2023/01/17 11:04:20;;;;;;;;;;;;;;;13.20;63.42;93950.78;5054064;28;1049;-54
2023/01/17 11:07:06;;;;;;;;;;;;;;;13.16;63.29;93945.00;5054181;28;1052;-54
2023/01/17 11:09:40;;;;;;;;;;;;;;;13.20;62.88;93938.22;5053873;28;2077;-54
2023/01/17 11:12:16;;;;;;;;;;;;;;;13.28;63.42;93921.06;5053949;28;1020;-54
2023/01/17 11:14:49;;;;;;;;;;;;;;;13.41;63.14;93920.25;5053764;28;1969;-54
2023/01/17 11:17:18;;;;;;;;;;;;;;;13.33;62.58;93912.41;5054046;28;997;-54
2023/01/17 11:19:50;;;;;;;;;;;;;;;13.28;62.82;93929.94;5053795;28;1041;-54
2023/01/17 11:22:16;;;;;;;;;;;;;;;13.29;61.88;93925.38;5073779;28;1032;-54
2023/01/17 11:24:51;;;;;;;;;;;;;;;13.36;62.78;93925.44;5073660;28;1041;-54
2023/01/17 11:27:23;;;;;;;;;;;;;;;13.44;62.17;93917.97;5073584;28;1088;-54
2023/01/17 11:30:00;;;;;;;;;;;;;;;13.38;61.25;93912.63;5073804;28;969;-54
2023/01/17 11:32:29;;;;;;;;;;;;;;;13.40;62.45;93905.19;5073530;28;1085;-54
2023/01/17 11:35:06;;;;;;;;;;;;;;;13.41;61.33;93902.28;5073430;28;1910;-53
2023/01/17 11:37:32;;;;;;;;;;;;;;;13.33;61.57;93899.00;5073384;28;1101;-54
2023/01/17 11:40:14;;;;;;;;;;;;;;;13.39;61.82;93895.47;5073479;28;1875;-54
2023/01/17 11:42:40;;;;;;;;;;;;;;;13.42;61.47;93879.78;5073562;28;1044;-54
2023/01/17 11:45:24;;;;;;;;;;;;;;;13.54;61.86;93874.56;5073108;28;1030;-54
2023/01/17 11:48:03;;;;;;;;;;;;;;;13.65;60.88;93865.06;5073338;28;1237;-54
2023/01/17 11:50:29;;;;;;;;;;;;;;;13.64;60.36;93874.16;5073297;28;1041;-54
2023/01/17 11:53:11;;;;;;;;;;;;;;;13.72;60.39;93860.50;5073249;28;1987;-54
2023/01/17 11:55:37;;;;;;;;;;;;;;;13.79;60.62;93857.75;5073363;28;1303;-54
2023/01/17 11:58:03;;;;;;;;;;;;;;;13.81;60.26;93853.00;5073374;28;1040;-54
2023/01/17 12:00:38;;;;;;;;;;;;;;;13.81;59.75;93855.69;5073024;28;1085;-54
2023/01/17 12:03:19;;;;;;;;;;;;;;;13.84;60.35;93853.41;5073507;28;997;-54
2023/01/17 12:05:54;;;;;;;;;;;;;;;13.97;59.23;93862.47;5073203;28;1533;-54
2023/01/17 12:08:39;;;;;;;;;;;;;;;14.11;59.70;93841.72;5073271;28;1360;-54
2023/01/17 12:11:15;;;;;;;;;;;;;;;14.18;58.85;93835.25;5073084;28;977;-54
2023/01/17 12:14:01;;;;;;;;;;;;;;;14.28;57.75;93828.59;5073234;28;1993;-54
2023/01/17 12:16:45;;;;;;;;;;;;;;;14.20;58.15;93827.81;5073173;28;1028;-54
2023/01/17 12:19:23;;;;;;;;;;;;;;;14.16;58.21;93831.16;5073078;28;982;-54
2023/01/17 12:22:08;;;;;;;;;;;;;;;14.14;57.62;93822.50;5056410;28;1150;-54
2023/01/17 12:24:38;;;;;;;;;;;;;;;14.02;58.61;93806.22;5052900;28;925;-54
2023/01/17 12:27:04;;;;;;;;;;;;;;;13.94;59.05;93811.81;5052993;28;1049;-54
2023/01/17 12:29:30;;;;;;;;;;;;;;;13.96;58.45;93826.72;5052921;28;1133;-54
2023/01/17 12:32:19;;;;;;;;;;;;;;;13.99;59.35;93812.00;5052929;28;1048;-54
2023/01/17 12:34:45;;;;;;;;;;;;;;;13.92;59.44;93820.09;5042524;28;1991;-54
2023/01/17 12:37:19;;;;;;;;;;;;;;;13.79;58.18;93812.94;5053068;28;1064;-54
2023/01/17 12:39:51;;;;;;;;;;;;;;;13.82;57.97;93801.75;5052993;28;962;-54
2023/01/17 12:42:39;;;;;;;;;;;;;;;13.93;57.76;93813.69;5053062;28;2012;-54
2023/01/17 12:45:08;;;;;;;;;;;;;;;14.08;57.15;93810.72;5052819;28;1041;-54
2023/01/17 12:47:39;;;;;;;;;;;;;;;14.27;56.43;93800.91;5052797;28;1084;-54
2023/01/17 12:50:05;;;;;;;;;;;;;;;14.29;56.31;93796.13;5052991;28;1084;-54
2023/01/17 12:52:39;;;;;;;;;;;;;;;14.36;56.47;93801.44;5052947;28;1523;-54
2023/01/17 12:55:09;;;;;;;;;;;;;;;14.33;56.12;93813.47;5052822;28;1971;-54
2023/01/17 12:57:46;;;;;;;;;;;;;;;14.28;55.92;93807.09;5055607;28;1088;-54
2023/01/17 13:00:18;;;;;;;;;;;;;;;14.20;55.62;93809.00;5056444;28;1008;-54
2023/01/17 13:03:03;;;;;;;;;;;;;;;14.15;56.13;93811.53;5056492;28;1055;-54
2023/01/17 13:05:34;;;;;;;;;;;;;;;14.09;56.06;93823.13;5056174;28;1045;-53
2023/01/17 13:08:12;;;;;;;;;;;;;;;13.95;55.56;93813.50;5056480;28;1033;-54
2023/01/17 13:10:43;;;;;;;;;;;;;;;13.91;55.56;93807.72;5056266;28;1033;-53
2023/01/17 13:13:19;;;;;;;;;;;;;;;13.93;56.37;93807.50;5056100;28;1987;-54
2023/01/17 13:15:46;;;;;;;;;;;;;;;13.89;56.53;93815.16;5056064;28;1064;-54
2023/01/17 13:18:21;;;;;;;;;;;;;;;13.94;55.83;93825.25;5056191;28;1032;-53
2023/01/17 13:20:47;;;;;;;;;;;;;;;13.93;55.53;93815.56;5064442;28;1259;-53
2023/01/17 13:23:25;;;;;;;;;;;;;;;13.89;56.16;93811.63;5075961;28;1054;-53
2023/01/17 13:25:51;;;;;;;;;;;;;;;13.90;56.03;93819.50;5075916;28;981;-53
2023/01/17 13:28:26;;;;;;;;;;;;;;;13.84;55.52;93815.78;5075760;28;1001;-53
2023/01/17 13:31:08;;;;;;;;;;;;;;;13.96;55.83;93809.75;5075781;28;1041;-54
2023/01/17 13:33:40;;;;;;;;;;;;;;;13.97;56.63;93804.16;5075812;28;1902;-54
2023/01/17 13:36:15;;;;;;;;;;;;;;;14.06;57.06;93807.44;5075750;28;1032;-54
2023/01/17 13:38:54;;;;;;;;;;;;;;;14.08;55.81;93805.34;5075615;28;967;-54
2023/01/17 13:41:32;;;;;;;;;;;;;;;14.14;56.54;93798.28;5075580;28;1065;-54
2023/01/17 13:46:55;;;;;;;;;;;;;;;14.05;55.70;93811.97;5075609;28;1049;-54
2023/01/17 13:49:27;;;;;;;;;;;;;;;14.01;56.14;93815.31;5075657;28;1033;-53
2023/01/17 13:51:59;;;;;;;;;;;;;;;13.91;56.14;93802.34;5075450;28;1020;-53
2023/01/17 13:54:32;;;;;;;;;;;;;;;13.83;55.93;93819.53;5075410;28;1981;-54
2023/01/17 13:57:17;;;;;;;;;;;;;;;13.90;56.32;93803.38;5075310;28;1195;-54
2023/01/17 13:59:43;;;;;;;;;;;;;;;13.88;56.19;93810.00;5075162;28;1497;-53
2023/01/17 14:02:29;;;;;;;;;;;;;;;13.92;56.68;93808.53;5075151;28;1237;-54
2023/01/17 14:05:07;;;;;;;;;;;;;;;13.93;56.41;93807.50;5074715;28;1718;-54
2023/01/17 14:07:34;;;;;;;;;;;;;;;13.97;57.18;93806.03;5075022;28;1030;-54
2023/01/17 14:10:14;;;;;;;;;;;;;;;13.88;56.65;93800.06;5075271;28;1207;-54
2023/01/17 14:12:40;;;;;;;;;;;;;;;13.81;56.79;93800.13;5074967;28;1040;-54
2023/01/17 14:15:18;;;;;;;;;;;;;;;13.81;57.16;93805.50;5075059;28;1971;-53
2023/01/17 14:17:54;;;;;;;;;;;;;;;13.91;57.19;93814.97;5075109;28;1004;-54
2023/01/17 14:20:23;;;;;;;;;;;;;;;13.84;57.29;93805.06;5070299;28;1154;-54
2023/01/17 14:22:55;;;;;;;;;;;;;;;13.88;58.32;93804.63;5055050;28;973;-54
2023/01/17 14:25:26;;;;;;;;;;;;;;;13.84;57.52;93805.06;5054760;28;1045;-54
2023/01/17 14:28:00;;;;;;;;;;;;;;;13.74;58.16;93801.19;5054697;28;1041;-54
2023/01/17 14:30:31;;;;;;;;;;;;;;;13.65;59.42;93801.41;5054676;28;1053;-54
2023/01/17 14:32:57;;;;;;;;;;;;;;;13.60;60.69;93808.47;5054616;28;1906;-54
2023/01/17 14:35:25;;;;;;;;;;;;;;;13.52;60.50;93800.66;5054498;28;1099;-54
2023/01/17 14:37:52;;;;;;;;;;;;;;;13.39;60.80;93797.00;5054553;28;1099;-54